Shelton, Connecticut
Current Conditions -  °F | °C
As of 11:33 PM on Wednesday 26 Nov 2014 (Local Time) from KBDR Reporting Station
Unknown Precip Unknown Precip  
Wind Chill: 26°   Ceiling: 3100
Heat Index: 35°   Visibility: 9mi
Dew Point: 33°   Wind: 14mph
Humidity: 92%   Direction: 330°NNW
Pressure: 29.77"   Gusts: 21mph
Location:  41.32°N, 73.11°W
Report Text: KBDR 270433Z 33012G18KT 9SM UP FEW010 SCT014 OVC031 02/01 A2977 RMK AO2 UPB25SNE25 P0001 T00170006
Loading
Personal Weather Stations






























Interactive Weather Map New forecast layout! Learn more

10-Day Weather Forecast

Advertisements
Track Severe Weather on mobile